sensor_id;sensor_type;location;lat;lon;timestamp;pressure;altitude;pressure_sealevel;temperature;humidity
60337;BME280;46978;50.288;28.624;2023-07-24T00:00:41;98875.08;;;13.14;100.00
60337;BME280;46978;50.288;28.624;2023-07-24T00:01:43;98869.93;;;13.12;100.00
60337;BME280;46978;50.288;28.624;2023-07-24T00:02:45;98870.88;;;13.09;100.00
60337;BME280;46978;50.288;28.624;2023-07-24T00:03:47;98870.88;;;13.09;100.00
60337;BME280;46978;50.288;28.624;2023-07-24T00:04:49;98876.09;;;13.09;100.00
60337;BME280;46978;50.288;28.624;2023-07-24T00:05:50;98868.27;;;13.09;100.00
60337;BME280;46978;50.288;28.624;2023-07-24T00:06:52;98867.44;;;13.09;100.00
60337;BME280;46978;50.288;28.624;2023-07-24T00:07:53;98869.17;;;13.08;100.00
60337;BME280;46978;50.288;28.624;2023-07-24T00:08:55;98869.22;;;13.07;100.00
60337;BME280;46978;50.288;28.624;2023-07-24T00:09:57;98875.30;;;13.07;100.00
60337;BME280;46978;50.288;28.624;2023-07-24T00:10:58;98874.44;;;13.07;100.00
60337;BME280;46978;50.288;28.624;2023-07-24T00:12:00;98871.83;;;13.07;100.00
60337;BME280;46978;50.288;28.624;2023-07-24T00:13:02;98869.28;;;13.05;100.00
60337;BME280;46978;50.288;28.624;2023-07-24T00:14:03;98868.44;;;13.05;100.00
60337;BME280;46978;50.288;28.624;2023-07-24T00:15:06;98865.84;;;13.05;100.00
60337;BME280;46978;50.288;28.624;2023-07-24T00:16:08;98863.23;;;13.05;100.00
60337;BME280;46978;50.288;28.624;2023-07-24T00:17:10;98865.84;;;13.05;100.00
60337;BME280;46978;50.288;28.624;2023-07-24T00:18:12;98861.52;;;13.04;100.00
60337;BME280;46978;50.288;28.624;2023-07-24T00:19:14;98863.28;;;13.03;100.00
60337;BME280;46978;50.288;28.624;2023-07-24T00:20:16;98860.68;;;13.03;100.00
60337;BME280;46978;50.288;28.624;2023-07-24T00:21:18;98859.84;;;13.03;100.00
60337;BME280;46978;50.288;28.624;2023-07-24T00:22:19;98858.97;;;13.02;100.00
60337;BME280;46978;50.288;28.624;2023-07-24T00:23:21;98861.63;;;13.01;100.00
60337;BME280;46978;50.288;28.624;2023-07-24T00:24:23;98861.63;;;13.01;100.00
60337;BME280;46978;50.288;28.624;2023-07-24T00:25:24;98859.03;;;13.01;100.00
60337;BME280;46978;50.288;28.624;2023-07-24T00:26:26;98862.56;;;13.00;100.00
60337;BME280;46978;50.288;28.624;2023-07-24T00:27:28;98859.09;;;12.99;100.00
60337;BME280;46978;50.288;28.624;2023-07-24T00:28:30;98859.09;;;12.99;100.00
60337;BME280;46978;50.288;28.624;2023-07-24T00:29:32;98857.41;;;12.98;100.00
60337;BME280;46978;50.288;28.624;2023-07-24T00:30:34;98856.53;;;12.98;100.00
60337;BME280;46978;50.288;28.624;2023-07-24T00:31:35;98863.45;;;12.99;100.00
60337;BME280;46978;50.288;28.624;2023-07-24T00:32:37;98855.70;;;12.97;100.00
60337;BME280;46978;50.288;28.624;2023-07-24T00:33:39;98853.09;;;12.97;100.00
60337;BME280;46978;50.288;28.624;2023-07-24T00:34:40;98858.30;;;12.97;100.00
60337;BME280;46978;50.288;28.624;2023-07-24T00:35:42;98856.59;;;12.96;100.00
60337;BME280;46978;50.288;28.624;2023-07-24T00:36:44;98857.52;;;12.95;100.00
60337;BME280;46978;50.288;28.624;2023-07-24T00:37:45;98852.31;;;12.95;100.00
60337;BME280;46978;50.288;28.624;2023-07-24T00:38:47;98855.81;;;12.94;100.00
60337;BME280;46978;50.288;28.624;2023-07-24T00:39:49;98858.41;;;12.94;100.00
60337;BME280;46978;50.288;28.624;2023-07-24T00:40:51;98861.91;;;12.93;100.00
60337;BME280;46978;50.288;28.624;2023-07-24T00:41:52;98860.23;;;12.92;100.00
60337;BME280;46978;50.288;28.624;2023-07-24T00:42:54;98852.47;;;12.90;100.00
60337;BME280;46978;50.288;28.624;2023-07-24T00:43:56;98853.31;;;12.91;100.00
60337;BME280;46978;50.288;28.624;2023-07-24T00:44:57;98848.16;;;12.89;100.00
60337;BME280;46978;50.288;28.624;2023-07-24T00:45:59;98859.41;;;12.90;100.00
60337;BME280;46978;50.288;28.624;2023-07-24T00:47:01;98852.53;;;12.89;100.00
60337;BME280;46978;50.288;28.624;2023-07-24T00:48:03;98856.81;;;12.90;100.00
60337;BME280;46978;50.288;28.624;2023-07-24T00:49:05;98854.26;;;12.88;100.00
60337;BME280;46978;50.288;28.624;2023-07-24T00:50:07;98855.13;;;12.89;100.00
60337;BME280;46978;50.288;28.624;2023-07-24T00:51:10;98852.58;;;12.87;100.00
60337;BME280;46978;50.288;28.624;2023-07-24T00:52:12;98861.28;;;12.86;100.00
60337;BME280;46978;50.288;28.624;2023-07-24T00:53:16;98854.31;;;12.87;100.00
60337;BME280;46978;50.288;28.624;2023-07-24T00:54:19;98864.73;;;12.87;100.00
60337;BME280;46978;50.288;28.624;2023-07-24T00:55:23;98862.18;;;12.85;100.00
60337;BME280;46978;50.288;28.624;2023-07-24T00:56:26;98862.18;;;12.85;100.00
60337;BME280;46978;50.288;28.624;2023-07-24T00:57:28;98859.58;;;12.85;100.00
60337;BME280;46978;50.288;28.624;2023-07-24T00:58:30;98860.55;;;12.83;100.00
60337;BME280;46978;50.288;28.624;2023-07-24T00:59:32;98860.50;;;12.84;100.00
60337;BME280;46978;50.288;28.624;2023-07-24T01:00:35;98853.59;;;12.83;100.00
60337;BME280;46978;50.288;28.624;2023-07-24T01:01:38;98863.16;;;12.83;100.00
60337;BME280;46978;50.288;28.624;2023-07-24T01:02:42;98851.88;;;12.82;100.00
60337;BME280;46978;50.288;28.624;2023-07-24T01:03:44;98861.39;;;12.83;100.00
60337;BME280;46978;50.288;28.624;2023-07-24T01:04:46;98845.83;;;12.82;100.00
60337;BME280;46978;50.288;28.624;2023-07-24T01:05:49;98844.94;;;12.83;100.00
60337;BME280;46978;50.288;28.624;2023-07-24T01:06:50;98850.14;;;12.83;100.00
60337;BME280;46978;50.288;28.624;2023-07-24T01:07:52;98850.14;;;12.83;100.00
60337;BME280;46978;50.288;28.624;2023-07-24T01:08:54;98857.08;;;12.82;100.00
60337;BME280;46978;50.288;28.624;2023-07-24T01:09:56;98849.33;;;12.81;100.00
60337;BME280;46978;50.288;28.624;2023-07-24T01:11:01;98837.17;;;12.81;100.00
60337;BME280;46978;50.288;28.624;2023-07-24T01:12:07;98845.83;;;12.82;100.00
60337;BME280;46978;50.288;28.624;2023-07-24T01:13:18;98845.88;;;12.80;100.00
60337;BME280;46978;50.288;28.624;2023-07-24T01:14:45;98844.13;;;12.81;100.00
60337;BME280;46978;50.288;28.624;2023-07-24T01:15:56;98848.48;;;12.80;100.00
60337;BME280;46978;50.288;28.624;2023-07-24T01:16:58;98842.44;;;12.80;100.00
60337;BME280;46978;50.288;28.624;2023-07-24T01:18:05;98843.28;;;12.80;100.00
60337;BME280;46978;50.288;28.624;2023-07-24T01:19:36;98849.38;;;12.79;100.00
60337;BME280;46978;50.288;28.624;2023-07-24T01:20:38;98842.50;;;12.78;100.00
60337;BME280;46978;50.288;28.624;2023-07-24T01:21:58;98842.50;;;12.78;100.00
60337;BME280;46978;50.288;28.624;2023-07-24T01:24:19;98841.57;;;12.79;100.00
60337;BME280;46978;50.288;28.624;2023-07-24T01:25:27;98831.16;;;12.79;100.00
60337;BME280;46978;50.288;28.624;2023-07-24T01:26:27;98837.23;;;12.80;100.00
60337;BME280;46978;50.288;28.624;2023-07-24T01:27:28;98831.16;;;12.79;100.00
60337;BME280;46978;50.288;28.624;2023-07-24T01:28:30;98830.31;;;12.79;100.00
60337;BME280;46978;50.288;28.624;2023-07-24T01:29:32;98832.02;;;12.80;100.00
60337;BME280;46978;50.288;28.624;2023-07-24T01:30:34;98833.70;;;12.81;100.00
60337;BME280;46978;50.288;28.624;2023-07-24T01:31:35;98830.20;;;12.82;100.00
60337;BME280;46978;50.288;28.624;2023-07-24T01:32:38;98836.20;;;12.84;100.00
60337;BME280;46978;50.288;28.624;2023-07-24T01:33:40;98837.86;;;12.86;100.00
60337;BME280;46978;50.288;28.624;2023-07-24T01:34:42;98846.45;;;12.88;100.00
60337;BME280;46978;50.288;28.624;2023-07-24T01:35:44;98838.58;;;12.90;100.00
60337;BME280;46978;50.288;28.624;2023-07-24T01:36:46;98838.53;;;12.91;100.00
60337;BME280;46978;50.288;28.624;2023-07-24T01:37:48;98841.95;;;12.94;100.00
60337;BME280;46978;50.288;28.624;2023-07-24T01:38:51;98844.44;;;12.97;100.00
60337;BME280;46978;50.288;28.624;2023-07-24T01:39:53;98844.44;;;12.97;100.00
60337;BME280;46978;50.288;28.624;2023-07-24T01:40:57;98846.98;;;12.98;100.00
60337;BME280;46978;50.288;28.624;2023-07-24T01:41:59;98849.54;;;13.00;100.00
60337;BME280;46978;50.288;28.624;2023-07-24T01:43:01;98841.67;;;13.01;100.00
60337;BME280;46978;50.288;28.624;2023-07-24T01:44:03;98843.29;;;13.04;100.00
60337;BME280;46978;50.288;28.624;2023-07-24T01:45:05;98836.34;;;13.04;100.00
60337;BME280;46978;50.288;28.624;2023-07-24T01:46:07;98843.13;;;13.08;100.00
60337;BME280;46978;50.288;28.624;2023-07-24T01:47:09;98840.52;;;13.08;100.00
60337;BME280;46978;50.288;28.624;2023-07-24T01:48:11;98843.88;;;13.12;100.00
60337;BME280;46978;50.288;28.624;2023-07-24T01:49:12;98842.05;;;13.14;100.00
60337;BME280;46978;50.288;28.624;2023-07-24T01:50:14;98844.60;;;13.16;100.00
60337;BME280;46978;50.288;28.624;2023-07-24T01:51:16;98842.84;;;13.16;100.00
60337;BME280;46978;50.288;28.624;2023-07-24T01:52:18;98842.67;;;13.21;100.00
60337;BME280;46978;50.288;28.624;2023-07-24T01:53:20;98845.33;;;13.19;100.00
60337;BME280;46978;50.288;28.624;2023-07-24T01:54:21;98842.67;;;13.21;100.00
60337;BME280;46978;50.288;28.624;2023-07-24T01:55:23;98841.77;;;13.22;100.00
60337;BME280;46978;50.288;28.624;2023-07-24T01:56:25;98850.31;;;13.25;100.00
60337;BME280;46978;50.288;28.624;2023-07-24T01:57:26;98842.44;;;13.27;100.00
60337;BME280;46978;50.288;28.624;2023-07-24T01:58:28;98843.22;;;13.29;100.00
60337;BME280;46978;50.288;28.624;2023-07-24T01:59:30;98842.27;;;13.32;100.00
60337;BME280;46978;50.288;28.624;2023-07-24T02:00:32;98848.30;;;13.34;100.00
60337;BME280;46978;50.288;28.624;2023-07-24T02:01:34;98849.16;;;13.34;100.00
60337;BME280;46978;50.288;28.624;2023-07-24T02:02:35;98841.28;;;13.36;100.00
60337;BME280;46978;50.288;28.624;2023-07-24T02:03:37;98853.33;;;13.38;100.00
60337;BME280;46978;50.288;28.624;2023-07-24T02:04:38;98849.83;;;13.39;100.00
60337;BME280;46978;50.288;28.624;2023-07-24T02:05:40;98855.03;;;13.39;100.00
60337;BME280;46978;50.288;28.624;2023-07-24T02:06:42;98852.38;;;13.41;100.00
60337;BME280;46978;50.288;28.624;2023-07-24T02:07:44;98849.77;;;13.41;100.00
60337;BME280;46978;50.288;28.624;2023-07-24T02:08:45;98849.83;;;13.39;99.92
60337;BME280;46978;50.288;28.624;2023-07-24T02:09:47;98843.78;;;13.39;99.73
60337;BME280;46978;50.288;28.624;2023-07-24T02:10:49;98848.93;;;13.40;99.50
60337;BME280;46978;50.288;28.624;2023-07-24T02:11:51;98846.38;;;13.39;99.41
60337;BME280;46978;50.288;28.624;2023-07-24T02:12:53;98846.38;;;13.39;99.35
60337;BME280;46978;50.288;28.624;2023-07-24T02:13:54;98851.66;;;13.37;99.35
60337;BME280;46978;50.288;28.624;2023-07-24T02:14:56;98853.39;;;13.37;99.22
60337;BME280;46978;50.288;28.624;2023-07-24T02:15:57;98848.23;;;13.35;99.07
60337;BME280;46978;50.288;28.624;2023-07-24T02:16:59;98847.39;;;13.35;98.88
60337;BME280;46978;50.288;28.624;2023-07-24T02:18:01;98845.69;;;13.34;98.82
60337;BME280;46978;50.288;28.624;2023-07-24T02:19:02;98852.66;;;13.33;98.87
60337;BME280;46978;50.288;28.624;2023-07-24T02:20:05;98850.92;;;13.32;98.87
60337;BME280;46978;50.288;28.624;2023-07-24T02:21:07;98846.64;;;13.31;98.72
60337;BME280;46978;50.288;28.624;2023-07-24T02:22:09;98848.38;;;13.31;98.63
60337;BME280;46978;50.288;28.624;2023-07-24T02:23:11;98849.24;;;13.31;98.51
60337;BME280;46978;50.288;28.624;2023-07-24T02:24:12;98850.14;;;13.30;98.31
60337;BME280;46978;50.288;28.624;2023-07-24T02:25:14;98845.83;;;13.29;98.21
60337;BME280;46978;50.288;28.624;2023-07-24T02:26:16;98845.83;;;13.29;97.90
60337;BME280;46978;50.288;28.624;2023-07-24T02:27:28;98838.94;;;13.28;97.84
60337;BME280;46978;50.288;28.624;2023-07-24T02:28:30;98844.98;;;13.28;97.80
60337;BME280;46978;50.288;28.624;2023-07-24T02:29:32;98848.43;;;13.29;97.73
60337;BME280;46978;50.288;28.624;2023-07-24T02:30:39;98844.09;;;13.30;97.61
60337;BME280;46978;50.288;28.624;2023-07-24T02:31:41;98839.83;;;13.27;97.48
60337;BME280;46978;50.288;28.624;2023-07-24T02:32:42;98839.72;;;13.30;97.47
60337;BME280;46978;50.288;28.624;2023-07-24T02:33:44;98841.48;;;13.30;97.42
60337;BME280;46978;50.288;28.624;2023-07-24T02:34:46;98842.33;;;13.30;97.28
60337;BME280;46978;50.288;28.624;2023-07-24T02:35:51;98843.16;;;13.31;97.30
60337;BME280;46978;50.288;28.624;2023-07-24T02:36:53;98843.10;;;13.32;97.37
60337;BME280;46978;50.288;28.624;2023-07-24T02:37:55;98843.10;;;13.32;97.36
60337;BME280;46978;50.288;28.624;2023-07-24T02:38:56;98837.89;;;13.32;97.45
60337;BME280;46978;50.288;28.624;2023-07-24T02:39:58;98843.08;;;13.34;97.61
60337;BME280;46978;50.288;28.624;2023-07-24T02:41:00;98838.73;;;13.34;97.64
60337;BME280;46978;50.288;28.624;2023-07-24T02:42:02;98840.41;;;13.35;97.47
60337;BME280;46978;50.288;28.624;2023-07-24T02:43:03;98836.08;;;13.36;97.64
60337;BME280;46978;50.288;28.624;2023-07-24T02:44:05;98846.44;;;13.37;97.70
60337;BME280;46978;50.288;28.624;2023-07-24T02:45:07;98839.45;;;13.38;97.70
60337;BME280;46978;50.288;28.624;2023-07-24T02:46:09;98834.25;;;13.38;97.69
60337;BME280;46978;50.288;28.624;2023-07-24T02:47:11;98836.86;;;13.38;97.74
60337;BME280;46978;50.288;28.624;2023-07-24T02:48:13;98834.13;;;13.41;97.86
60337;BME280;46978;50.288;28.624;2023-07-24T02:49:14;98834.97;;;13.41;97.74
60337;BME280;46978;50.288;28.624;2023-07-24T02:50:16;98837.52;;;13.43;97.80
60337;BME280;46978;50.288;28.624;2023-07-24T02:51:18;98834.85;;;13.44;97.61
60337;BME280;46978;50.288;28.624;2023-07-24T02:52:19;98827.91;;;13.45;97.75
60337;BME280;46978;50.288;28.624;2023-07-24T02:53:21;98828.69;;;13.47;97.70
60337;BME280;46978;50.288;28.624;2023-07-24T02:54:23;98830.39;;;13.48;97.74
60337;BME280;46978;50.288;28.624;2023-07-24T02:55:26;98829.47;;;13.49;97.67
60337;BME280;46978;50.288;28.624;2023-07-24T02:56:28;98825.06;;;13.51;97.71
60337;BME280;46978;50.288;28.624;2023-07-24T02:57:30;98825.06;;;13.51;97.71
60337;BME280;46978;50.288;28.624;2023-07-24T02:58:32;98829.28;;;13.54;97.68
60337;BME280;46978;50.288;28.624;2023-07-24T02:59:33;98824.94;;;13.54;97.78
60337;BME280;46978;50.288;28.624;2023-07-24T03:00:35;98824.02;;;13.55;97.68
60337;BME280;46978;50.288;28.624;2023-07-24T03:01:37;98819.61;;;13.57;97.45
60337;BME280;46978;50.288;28.624;2023-07-24T03:02:39;98816.02;;;13.60;97.52
60337;BME280;46978;50.288;28.624;2023-07-24T03:03:41;98814.27;;;13.60;97.26
60337;BME280;46978;50.288;28.624;2023-07-24T03:04:43;98822.88;;;13.62;97.08
60337;BME280;46978;50.288;28.624;2023-07-24T03:05:45;98814.99;;;13.64;96.97
60337;BME280;46978;50.288;28.624;2023-07-24T03:06:46;98811.42;;;13.67;96.71
60337;BME280;46978;50.288;28.624;2023-07-24T03:07:48;98815.65;;;13.69;96.48
60337;BME280;46978;50.288;28.624;2023-07-24T03:08:49;98810.38;;;13.71;96.44
60337;BME280;46978;50.288;28.624;2023-07-24T03:09:51;98811.96;;;13.75;96.32
60337;BME280;46978;50.288;28.624;2023-07-24T03:10:53;98813.55;;;13.79;96.33
60337;BME280;46978;50.288;28.624;2023-07-24T03:11:55;98816.03;;;13.82;96.11
60337;BME280;46978;50.288;28.624;2023-07-24T03:12:56;98810.69;;;13.85;95.88
60337;BME280;46978;50.288;28.624;2023-07-24T03:13:58;98811.41;;;13.89;95.73
60337;BME280;46978;50.288;28.624;2023-07-24T03:15:00;98813.95;;;13.90;95.57
60337;BME280;46978;50.288;28.624;2023-07-24T03:16:01;98806.00;;;13.93;95.29
60337;BME280;46978;50.288;28.624;2023-07-24T03:17:03;98813.70;;;13.96;95.03
60337;BME280;46978;50.288;28.624;2023-07-24T03:18:05;98817.02;;;14.00;94.88
60337;BME280;46978;50.288;28.624;2023-07-24T03:19:07;98810.00;;;14.02;94.72
60337;BME280;46978;50.288;28.624;2023-07-24T03:20:15;98821.98;;;14.06;94.43
60337;BME280;46978;50.288;28.624;2023-07-24T03:21:17;98813.27;;;14.07;94.14
60337;BME280;46978;50.288;28.624;2023-07-24T03:22:18;98822.67;;;14.11;93.89
60337;BME280;46978;50.288;28.624;2023-07-24T03:23:20;98823.44;;;14.13;93.77
60337;BME280;46978;50.288;28.624;2023-07-24T03:24:22;98818.09;;;14.16;93.60
60337;BME280;46978;50.288;28.624;2023-07-24T03:25:23;98817.97;;;14.20;93.30
60337;BME280;46978;50.288;28.624;2023-07-24T03:26:25;98815.23;;;14.23;93.10
60337;BME280;46978;50.288;28.624;2023-07-24T03:27:27;98817.65;;;14.27;92.91
60337;BME280;46978;50.288;28.624;2023-07-24T03:28:28;98823.58;;;14.31;92.86
60337;BME280;46978;50.288;28.624;2023-07-24T03:29:30;98810.34;;;14.35;92.63
60337;BME280;46978;50.288;28.624;2023-07-24T03:30:32;98818.84;;;14.41;92.42
60337;BME280;46978;50.288;28.624;2023-07-24T03:31:34;98816.03;;;14.45;91.85
60337;BME280;46978;50.288;28.624;2023-07-24T03:32:36;98818.34;;;14.51;91.75
60337;BME280;46978;50.288;28.624;2023-07-24T03:33:39;98818.95;;;14.58;91.50
60337;BME280;46978;50.288;28.624;2023-07-24T03:34:40;98811.66;;;14.66;91.16
60337;BME280;46978;50.288;28.624;2023-07-24T03:35:42;98815.64;;;14.75;90.92
60337;BME280;46978;50.288;28.624;2023-07-24T03:36:44;98808.94;;;14.88;90.60
60337;BME280;46978;50.288;28.624;2023-07-24T03:37:45;98814.55;;;15.00;89.86
60337;BME280;46978;50.288;28.624;2023-07-24T03:38:47;98814.62;;;15.17;89.40
60337;BME280;46978;50.288;28.624;2023-07-24T03:39:48;98810.39;;;15.34;88.82
60337;BME280;46978;50.288;28.624;2023-07-24T03:40:50;98810.44;;;15.51;87.88
60337;BME280;46978;50.288;28.624;2023-07-24T03:41:52;98810.47;;;15.69;87.01
60337;BME280;46978;50.288;28.624;2023-07-24T03:42:54;98808.70;;;15.88;86.45
60337;BME280;46978;50.288;28.624;2023-07-24T03:43:55;98805.63;;;16.15;85.38
60337;BME280;46978;50.288;28.624;2023-07-24T03:44:57;98804.08;;;16.46;84.04
60337;BME280;46978;50.288;28.624;2023-07-24T03:45:59;98798.95;;;16.78;82.07
60337;BME280;46978;50.288;28.624;2023-07-24T03:47:01;98795.41;;;17.12;80.61
60337;BME280;46978;50.288;28.624;2023-07-24T03:48:02;98802.02;;;17.35;79.50
60337;BME280;46978;50.288;28.624;2023-07-24T03:49:04;98792.17;;;17.55;77.54
60337;BME280;46978;50.288;28.624;2023-07-24T03:50:07;98799.18;;;17.70;76.51
60337;BME280;46978;50.288;28.624;2023-07-24T03:51:08;98790.70;;;17.81;75.50
60337;BME280;46978;50.288;28.624;2023-07-24T03:52:10;98787.89;;;17.84;74.37
60337;BME280;46978;50.288;28.624;2023-07-24T03:53:12;98788.84;;;17.99;74.41
60337;BME280;46978;50.288;28.624;2023-07-24T03:54:13;98797.34;;;18.19;73.37
60337;BME280;46978;50.288;28.624;2023-07-24T03:55:15;98790.32;;;18.34;73.30
60337;BME280;46978;50.288;28.624;2023-07-24T03:56:17;98782.85;;;18.42;72.58
60337;BME280;46978;50.288;28.624;2023-07-24T03:57:19;98791.75;;;18.39;72.01
60337;BME280;46978;50.288;28.624;2023-07-24T03:58:20;98784.33;;;18.32;72.00
60337;BME280;46978;50.288;28.624;2023-07-24T03:59:22;98784.78;;;18.24;72.27
60337;BME280;46978;50.288;28.624;2023-07-24T04:00:24;98792.36;;;18.14;71.83
60337;BME280;46978;50.288;28.624;2023-07-24T04:01:26;98786.87;;;18.03;72.20
60337;BME280;46978;50.288;28.624;2023-07-24T04:02:27;98785.82;;;17.91;72.28
60337;BME280;46978;50.288;28.624;2023-07-24T04:03:29;98789.03;;;17.80;73.00
60337;BME280;46978;50.288;28.624;2023-07-24T04:04:31;98789.47;;;17.72;73.36
60337;BME280;46978;50.288;28.624;2023-07-24T04:05:34;98784.56;;;17.66;73.81
60337;BME280;46978;50.288;28.624;2023-07-24T04:06:37;98787.36;;;17.63;74.09
60337;BME280;46978;50.288;28.624;2023-07-24T04:07:38;98780.58;;;17.59;74.58
60337;BME280;46978;50.288;28.624;2023-07-24T04:08:40;98786.66;;;17.60;74.60
60337;BME280;46978;50.288;28.624;2023-07-24T04:09:42;98781.33;;;17.61;74.93
60337;BME280;46978;50.288;28.624;2023-07-24T04:10:44;98781.07;;;17.66;74.87
60337;BME280;46978;50.288;28.624;2023-07-24T04:11:45;98777.09;;;17.74;74.69
60337;BME280;46978;50.288;28.624;2023-07-24T04:12:47;98776.98;;;17.92;74.30
60337;BME280;46978;50.288;28.624;2023-07-24T04:13:48;98780.99;;;18.14;73.31
60337;BME280;46978;50.288;28.624;2023-07-24T04:14:50;98777.88;;;18.37;72.88
60337;BME280;46978;50.288;28.624;2023-07-24T04:15:52;98775.34;;;18.64;71.73
60337;BME280;46978;50.288;28.624;2023-07-24T04:16:53;98773.39;;;18.83;70.53
60337;BME280;46978;50.288;28.624;2023-07-24T04:17:55;98773.40;;;18.97;70.08
60337;BME280;46978;50.288;28.624;2023-07-24T04:18:57;98771.70;;;19.10;69.22
60337;BME280;46978;50.288;28.624;2023-07-24T04:19:58;98775.80;;;19.29;68.75
60337;BME280;46978;50.288;28.624;2023-07-24T04:21:00;98775.56;;;19.46;67.98
60337;BME280;46978;50.288;28.624;2023-07-24T04:22:02;98775.80;;;19.56;67.33
60337;BME280;46978;50.288;28.624;2023-07-24T04:23:04;98778.43;;;19.56;66.48
60337;BME280;46978;50.288;28.624;2023-07-24T04:24:06;98778.62;;;19.53;66.34
60337;BME280;46978;50.288;28.624;2023-07-24T04:25:08;98777.16;;;19.49;66.65
60337;BME280;46978;50.288;28.624;2023-07-24T04:26:10;98779.22;;;19.44;66.80
60337;BME280;46978;50.288;28.624;2023-07-24T04:27:32;98781.31;;;19.39;66.76
60337;BME280;46978;50.288;28.624;2023-07-24T04:28:33;98779.36;;;19.28;66.83
60337;BME280;46978;50.288;28.624;2023-07-24T04:29:35;98780.87;;;19.17;67.00
60337;BME280;46978;50.288;28.624;2023-07-24T04:30:38;98778.82;;;19.08;67.20
60337;BME280;46978;50.288;28.624;2023-07-24T04:31:39;98786.55;;;18.97;67.68
60337;BME280;46978;50.288;28.624;2023-07-24T04:32:42;98775.67;;;18.89;67.96
60337;BME280;46978;50.288;28.624;2023-07-24T04:33:43;98782.20;;;18.81;68.25
60337;BME280;46978;50.288;28.624;2023-07-24T04:34:45;98777.22;;;18.77;68.58
60337;BME280;46978;50.288;28.624;2023-07-24T04:35:50;98787.92;;;18.74;68.80
60337;BME280;46978;50.288;28.624;2023-07-24T04:36:51;98785.58;;;18.69;69.21
60337;BME280;46978;50.288;28.624;2023-07-24T04:37:53;98787.00;;;18.75;69.56
60337;BME280;46978;50.288;28.624;2023-07-24T04:38:55;98781.18;;;18.84;69.37
60337;BME280;46978;50.288;28.624;2023-07-24T04:39:56;98782.02;;;18.99;69.03
60337;BME280;46978;50.288;28.624;2023-07-24T04:41:01;98775.55;;;19.05;68.61
60337;BME280;46978;50.288;28.624;2023-07-24T04:42:04;98781.55;;;19.07;68.16
60337;BME280;46978;50.288;28.624;2023-07-24T04:43:06;98778.27;;;19.03;68.12
60337;BME280;46978;50.288;28.624;2023-07-24T04:44:07;98782.51;;;19.06;68.13
60337;BME280;46978;50.288;28.624;2023-07-24T04:45:09;98777.25;;;19.06;68.23
60337;BME280;46978;50.288;28.624;2023-07-24T04:46:12;98782.31;;;19.09;68.36
60337;BME280;46978;50.288;28.624;2023-07-24T04:47:14;98780.97;;;19.16;68.25
60337;BME280;46978;50.288;28.624;2023-07-24T04:48:16;98783.41;;;19.19;68.05
60337;BME280;46978;50.288;28.624;2023-07-24T04:49:18;98781.99;;;19.28;67.97
60337;BME280;46978;50.288;28.624;2023-07-24T04:50:20;98780.38;;;19.40;67.84
60337;BME280;46978;50.288;28.624;2023-07-24T04:51:21;98780.42;;;19.52;67.43
60337;BME280;46978;50.288;28.624;2023-07-24T04:52:23;98783.97;;;19.66;66.72
60337;BME280;46978;50.288;28.624;2023-07-24T04:53:25;98784.86;;;19.79;66.47
60337;BME280;46978;50.288;28.624;2023-07-24T04:54:28;98784.06;;;19.92;65.66
60337;BME280;46978;50.288;28.624;2023-07-24T04:55:29;98781.24;;;20.08;65.55
60337;BME280;46978;50.288;28.624;2023-07-24T04:56:31;98781.19;;;20.22;65.02
60337;BME280;46978;50.288;28.624;2023-07-24T04:57:33;98775.70;;;20.38;64.97
60337;BME280;46978;50.288;28.624;2023-07-24T04:58:35;98778.23;;;20.52;64.58
60337;BME280;46978;50.288;28.624;2023-07-24T04:59:37;98774.86;;;20.63;63.83
60337;BME280;46978;50.288;28.624;2023-07-24T05:00:38;98771.72;;;20.71;63.34
60337;BME280;46978;50.288;28.624;2023-07-24T05:01:40;98768.55;;;20.78;63.06
60337;BME280;46978;50.288;28.624;2023-07-24T05:02:42;98768.13;;;20.85;62.72
60337;BME280;46978;50.288;28.624;2023-07-24T05:03:44;98767.91;;;20.88;62.66
60337;BME280;46978;50.288;28.624;2023-07-24T05:04:45;98770.33;;;20.91;62.22
60337;BME280;46978;50.288;28.624;2023-07-24T05:05:56;98767.69;;;20.91;62.22
60337;BME280;46978;50.288;28.624;2023-07-24T05:06:58;98772.14;;;20.90;62.14
60337;BME280;46978;50.288;28.624;2023-07-24T05:08:00;98763.06;;;20.94;62.34
60337;BME280;46978;50.288;28.624;2023-07-24T05:09:02;98763.06;;;20.94;62.34
60337;BME280;46978;50.288;28.624;2023-07-24T05:10:05;98760.94;;;21.00;62.54
60337;BME280;46978;50.288;28.624;2023-07-24T05:11:06;98764.94;;;21.05;61.91
60337;BME280;46978;50.288;28.624;2023-07-24T05:12:10;98764.84;;;21.07;61.32
60337;BME280;46978;50.288;28.624;2023-07-24T05:13:12;98762.20;;;21.07;61.02
60337;BME280;46978;50.288;28.624;2023-07-24T05:14:13;98765.56;;;21.09;61.21
60337;BME280;46978;50.288;28.624;2023-07-24T05:15:15;98758.37;;;21.11;61.04
60337;BME280;46978;50.288;28.624;2023-07-24T05:16:17;98767.88;;;21.13;61.21
60337;BME280;46978;50.288;28.624;2023-07-24T05:17:18;98766.78;;;21.16;61.08
60337;BME280;46978;50.288;28.624;2023-07-24T05:18:20;98762.48;;;21.15;60.67
60337;BME280;46978;50.288;28.624;2023-07-24T05:19:22;98764.26;;;21.14;60.89
60337;BME280;46978;50.288;28.624;2023-07-24T05:20:23;98757.93;;;21.17;61.29
60337;BME280;46978;50.288;28.624;2023-07-24T05:21:25;98758.54;;;21.21;61.70
60337;BME280;46978;50.288;28.624;2023-07-24T05:22:27;98763.59;;;21.24;61.24
60337;BME280;46978;50.288;28.624;2023-07-24T05:23:29;98748.63;;;21.24;61.40
60337;BME280;46978;50.288;28.624;2023-07-24T05:24:30;98748.63;;;21.24;61.40
60337;BME280;46978;50.288;28.624;2023-07-24T05:25:32;98760.63;;;21.28;60.61